createdAt,value
2023-04-22T00:03:57.965Z,92666.28
2023-04-22T00:05:30.310Z,92665.97
2023-04-22T00:07:15.363Z,92655.63
2023-04-22T00:08:52.694Z,92657.56
2023-04-22T00:10:24.444Z,92661.84
2023-04-22T00:12:03.466Z,92651.63
2023-04-22T00:13:46.700Z,92658.25
2023-04-22T00:15:24.707Z,92655.28
2023-04-22T00:17:01.974Z,92654.66
2023-04-22T00:19:02.146Z,92650.88
2023-04-22T00:20:34.564Z,92651.56
2023-04-22T00:22:06.626Z,92656.00
2023-04-22T00:25:36.228Z,92656.53
2023-04-22T00:27:08.323Z,92654.75
2023-04-22T00:28:46.535Z,92664.69
2023-04-22T00:32:09.970Z,92665.72
2023-04-22T00:33:52.724Z,92670.09
2023-04-22T00:35:36.115Z,92657.56
2023-04-22T00:39:09.310Z,92661.78
2023-04-22T00:40:53.054Z,92661.28
2023-04-22T00:42:27.669Z,92665.25
2023-04-22T00:44:12.123Z,92659.88
2023-04-22T00:45:49.888Z,92652.94
2023-04-22T00:47:34.057Z,92657.69
2023-04-22T00:50:58.668Z,92660.09
2023-04-22T00:52:32.946Z,92657.09
2023-04-22T00:54:41.285Z,92664.03
2023-04-22T00:56:26.086Z,92662.63
2023-04-22T00:58:00.980Z,92658.88
2023-04-22T00:59:33.231Z,92663.63
2023-04-22T01:04:41.960Z,92660.16
2023-04-22T01:08:30.813Z,92664.94
2023-04-22T01:10:15.512Z,92666.03
2023-04-22T01:11:57.901Z,92662.78
2023-04-22T01:13:36.645Z,92667.00
2023-04-22T01:15:13.722Z,92667.19
2023-04-22T01:16:55.945Z,92670.38
2023-04-22T01:18:27.761Z,92659.28
2023-04-22T01:20:15.045Z,92668.69
2023-04-22T01:22:01.037Z,92675.84
2023-04-22T01:23:38.824Z,92688.25
2023-04-22T01:28:52.416Z,92683.56
2023-04-22T01:30:26.868Z,92676.94
2023-04-22T01:32:01.760Z,92685.28
2023-04-22T01:33:36.722Z,92674.56
2023-04-22T01:35:24.003Z,92682.91
2023-04-22T01:37:06.129Z,92673.28
2023-04-22T01:38:49.066Z,92676.75
2023-04-22T01:40:22.794Z,92671.69
2023-04-22T01:42:02.465Z,92673.28
2023-04-22T01:43:41.298Z,92671.41
2023-04-22T01:45:22.380Z,92671.69
2023-04-22T01:46:54.132Z,92669.31
2023-04-22T01:50:21.841Z,92668.28
2023-04-22T01:51:53.615Z,92668.28
2023-04-22T01:53:33.226Z,92672.06
2023-04-22T01:57:48.085Z,92665.44
2023-04-22T02:01:07.407Z,92669.00
2023-04-22T02:06:33.807Z,92668.31
2023-04-22T02:08:08.603Z,92666.50
2023-04-22T02:10:04.786Z,92667.88
2023-04-22T02:11:43.660Z,92669.88
2023-04-22T02:15:27.096Z,92674.44
2023-04-22T02:19:09.686Z,92679.88
2023-04-22T02:20:47.198Z,92671.34
2023-04-22T02:22:22.768Z,92675.34
2023-04-22T02:23:54.582Z,92673.25
2023-04-22T02:25:41.575Z,92671.75
2023-04-22T02:27:13.203Z,92676.38
2023-04-22T02:28:47.737Z,92677.28
2023-04-22T02:32:34.395Z,92687.56
2023-04-22T02:34:08.197Z,92673.38
2023-04-22T02:35:51.107Z,92686.75
2023-04-22T02:37:30.156Z,92679.53
2023-04-22T02:39:15.289Z,92682.72
2023-04-22T02:40:50.327Z,92679.97
2023-04-22T02:42:59.583Z,92685.50
2023-04-22T02:44:32.154Z,92685.72
2023-04-22T02:47:54.831Z,92682.75
2023-04-22T02:49:26.608Z,92691.06
2023-04-22T02:52:44.148Z,92687.38
2023-04-22T02:54:23.134Z,92684.22
2023-04-22T02:56:14.716Z,92691.81
2023-04-22T02:57:55.367Z,92682.81
2023-04-22T03:00:02.312Z,92690.84
2023-04-22T03:01:45.342Z,92694.00
2023-04-22T03:03:26.851Z,92693.41
2023-04-22T03:05:02.448Z,92699.97
2023-04-22T03:06:45.623Z,92696.13
2023-04-22T03:08:17.137Z,92692.25
2023-04-22T03:09:56.120Z,92694.94
2023-04-22T03:11:33.755Z,92695.25
2023-04-22T03:13:05.415Z,92696.91
2023-04-22T03:14:37.070Z,92699.09
2023-04-22T03:16:22.997Z,92690.28
2023-04-22T03:19:46.666Z,92701.56
2023-04-22T03:21:21.514Z,92700.75
2023-04-22T03:22:59.503Z,92698.69
2023-04-22T03:25:01.575Z,92700.34
2023-04-22T03:26:29.021Z,92696.09
2023-04-22T03:28:09.186Z,92696.09
2023-04-22T03:30:03.236Z,92699.78
2023-04-22T03:33:57.671Z,92701.94
2023-04-22T03:35:29.515Z,92710.75
2023-04-22T03:37:01.536Z,92704.34
2023-04-22T03:38:40.906Z,92708.88
2023-04-22T03:40:19.879Z,92707.81
2023-04-22T03:44:19.612Z,92712.13
2023-04-22T03:45:53.777Z,92716.19
2023-04-22T03:47:28.472Z,92713.81
2023-04-22T03:48:59.953Z,92714.03
2023-04-22T03:50:31.894Z,92721.25
2023-04-22T03:52:03.955Z,92713.03
2023-04-22T03:53:36.623Z,92717.59
2023-04-22T03:57:03.005Z,92714.69
2023-04-22T03:58:42.136Z,92721.13
2023-04-22T04:00:13.785Z,92716.56
2023-04-22T04:01:48.014Z,92721.94
2023-04-22T04:03:22.694Z,92726.69
2023-04-22T04:04:57.539Z,92726.69
2023-04-22T04:06:35.133Z,92722.44
2023-04-22T04:08:12.793Z,92729.38
2023-04-22T04:09:53.751Z,92736.31
2023-04-22T04:11:25.268Z,92733.13
2023-04-22T04:12:56.827Z,92738.47
2023-04-22T04:14:28.406Z,92733.41
2023-04-22T04:16:00.601Z,92737.09
2023-04-22T04:17:34.377Z,92742.94
2023-04-22T04:19:06.901Z,92741.84
2023-04-22T04:20:38.481Z,92746.03
2023-04-22T04:22:10.772Z,92746.97
2023-04-22T04:23:44.693Z,92744.19
2023-04-22T04:25:16.324Z,92752.25
2023-04-22T04:26:49.117Z,92752.69
2023-04-22T04:28:20.745Z,92753.38
2023-04-22T04:29:56.085Z,92745.06
2023-04-22T04:31:30.576Z,92746.84
2023-04-22T04:33:07.464Z,92743.50
2023-04-22T04:34:39.184Z,92750.63
2023-04-22T04:36:11.062Z,92754.50
2023-04-22T04:37:48.888Z,92747.66
2023-04-22T04:39:28.187Z,92744.91
2023-04-22T04:40:59.934Z,92753.03
2023-04-22T04:42:33.609Z,92752.63
2023-04-22T04:44:13.426Z,92745.50
2023-04-22T04:45:48.905Z,92742.59
2023-04-22T04:47:22.785Z,92740.78
2023-04-22T04:48:54.852Z,92751.09
2023-04-22T04:50:28.150Z,92749.91
2023-04-22T04:51:59.757Z,92751.19
2023-04-22T04:53:31.445Z,92755.94
2023-04-22T04:55:02.998Z,92754.84
2023-04-22T04:56:35.358Z,92759.31
2023-04-22T04:58:07.074Z,92760.72
2023-04-22T04:59:38.841Z,92761.31
2023-04-22T05:01:10.754Z,92755.94
2023-04-22T05:02:42.588Z,92758.03
2023-04-22T05:04:14.558Z,92761.50
2023-04-22T05:05:48.501Z,92767.38
2023-04-22T05:07:20.053Z,92763.59
2023-04-22T05:08:51.681Z,92767.06
2023-04-22T05:10:23.570Z,92768.06
2023-04-22T05:11:55.193Z,92768.06
2023-04-22T05:13:27.720Z,92763.41
2023-04-22T05:14:59.311Z,92771.81
2023-04-22T05:16:31.155Z,92774.09
2023-04-22T05:18:02.980Z,92768.59
2023-04-22T05:19:34.559Z,92777.81
2023-04-22T05:21:06.287Z,92773.94
2023-04-22T05:22:38.258Z,92773.00
2023-04-22T05:24:09.867Z,92773.69
2023-04-22T05:25:41.547Z,92771.13
2023-04-22T05:27:13.168Z,92776.22
2023-04-22T05:28:44.782Z,92779.13
2023-04-22T05:30:16.366Z,92778.19
2023-04-22T05:31:48.163Z,92773.41
2023-04-22T05:33:19.726Z,92780.66
2023-04-22T05:34:51.350Z,92779.13
2023-04-22T05:36:22.911Z,92772.66
2023-04-22T05:37:54.621Z,92771.00
2023-04-22T05:39:26.988Z,92778.22
2023-04-22T05:40:58.623Z,92774.69
2023-04-22T05:42:30.138Z,92774.75
2023-04-22T05:44:01.975Z,92779.38
2023-04-22T05:45:33.620Z,92781.19
2023-04-22T05:47:05.381Z,92779.63
2023-04-22T05:48:36.941Z,92778.91
2023-04-22T05:50:08.861Z,92770.88
2023-04-22T05:51:40.503Z,92771.84
2023-04-22T05:53:11.993Z,92768.22
2023-04-22T05:54:43.652Z,92777.88
2023-04-22T05:56:15.589Z,92776.97
2023-04-22T05:57:47.671Z,92775.72
2023-04-22T05:59:21.090Z,92770.69
2023-04-22T06:00:53.260Z,92779.44
2023-04-22T06:02:25.005Z,92773.59
2023-04-22T06:03:58.114Z,92775.53
2023-04-22T06:05:30.400Z,92775.56
2023-04-22T06:07:02.108Z,92776.19
2023-04-22T06:08:33.673Z,92771.94
2023-04-22T06:10:05.854Z,92778.13
2023-04-22T06:11:37.509Z,92772.13
2023-04-22T06:13:09.861Z,92778.63
2023-04-22T06:14:41.543Z,92777.22
2023-04-22T06:16:13.127Z,92773.88
2023-04-22T06:17:45.796Z,92781.03
2023-04-22T06:19:17.413Z,92777.50
2023-04-22T06:20:49.004Z,92781.50
2023-04-22T06:22:20.655Z,92777.19
2023-04-22T06:23:52.450Z,92772.09
2023-04-22T06:25:24.112Z,92780.19
2023-04-22T06:26:56.373Z,92780.78
2023-04-22T06:28:28.162Z,92783.59
2023-04-22T06:30:00.329Z,92782.16
2023-04-22T06:31:32.461Z,92782.63
2023-04-22T06:33:04.253Z,92778.31
2023-04-22T06:34:35.994Z,92774.63
2023-04-22T06:36:07.628Z,92780.63
2023-04-22T06:37:39.690Z,92781.53
2023-04-22T06:39:11.266Z,92777.78
2023-04-22T06:40:43.688Z,92776.63
2023-04-22T06:42:15.259Z,92785.13
2023-04-22T06:43:49.786Z,92776.66
2023-04-22T06:45:21.504Z,92776.16
2023-04-22T06:46:54.642Z,92778.25
2023-04-22T06:48:27.938Z,92778.06
2023-04-22T06:49:59.851Z,92778.53
2023-04-22T06:51:32.079Z,92777.88
2023-04-22T06:53:03.718Z,92783.38
2023-04-22T06:54:35.533Z,92774.25
2023-04-22T06:56:07.380Z,92779.41
2023-04-22T06:57:39.002Z,92770.28
2023-04-22T06:59:10.754Z,92777.00
2023-04-22T07:00:44.061Z,92780.88
2023-04-22T07:02:15.776Z,92777.63
2023-04-22T07:03:47.562Z,92774.16
2023-04-22T07:05:19.375Z,92780.03
2023-04-22T07:06:51.424Z,92777.50
2023-04-22T07:08:23.081Z,92777.22
2023-04-22T07:09:54.928Z,92773.47
2023-04-22T07:11:27.953Z,92783.09
2023-04-22T07:12:59.617Z,92774.19
2023-04-22T07:14:31.890Z,92779.19
2023-04-22T07:16:03.569Z,92775.91
2023-04-22T07:17:35.132Z,92767.66
2023-04-22T07:19:06.757Z,92773.97
2023-04-22T07:20:38.323Z,92772.50
2023-04-22T07:22:09.973Z,92769.56
2023-04-22T07:23:41.690Z,92770.91
2023-04-22T07:25:13.365Z,92772.25
2023-04-22T07:26:44.997Z,92773.63
2023-04-22T07:28:16.613Z,92773.72
2023-04-22T07:29:48.196Z,92775.22
2023-04-22T07:31:19.864Z,92772.28
2023-04-22T07:32:52.548Z,92780.72
2023-04-22T07:34:24.180Z,92777.94
2023-04-22T07:35:55.738Z,92783.69
2023-04-22T07:37:29.184Z,92784.56
2023-04-22T07:39:08.176Z,92774.97
2023-04-22T07:40:44.888Z,92774.47
2023-04-22T07:42:17.028Z,92777.09
2023-04-22T07:43:53.395Z,92777.59
2023-04-22T07:45:25.351Z,92782.97
2023-04-22T07:46:56.854Z,92778.09
2023-04-22T07:48:28.382Z,92781.63
2023-04-22T07:49:59.968Z,92782.19
2023-04-22T07:51:32.424Z,92778.78
2023-04-22T07:53:04.215Z,92774.22
2023-04-22T07:54:35.848Z,92772.38
2023-04-22T07:56:07.387Z,92772.44
2023-04-22T07:57:42.697Z,92777.44
2023-04-22T07:59:14.280Z,92778.41
2023-04-22T08:00:46.014Z,92778.16
2023-04-22T08:02:17.678Z,92778.66
2023-04-22T08:03:52.532Z,92778.31
2023-04-22T08:05:24.273Z,92778.44
2023-04-22T08:06:56.313Z,92780.63
2023-04-22T08:08:28.561Z,92777.72
2023-04-22T08:10:00.328Z,92775.19
2023-04-22T08:11:35.062Z,92777.13
2023-04-22T08:13:09.458Z,92771.84
2023-04-22T08:14:41.144Z,92768.94
2023-04-22T08:16:12.706Z,92778.97
2023-04-22T08:17:47.554Z,92769.56
2023-04-22T08:19:50.281Z,92769.47
2023-04-22T08:21:21.992Z,92773.34
2023-04-22T08:23:00.733Z,92770.44
2023-04-22T08:24:32.446Z,92767.72
2023-04-22T08:26:04.173Z,92764.66
2023-04-22T08:27:36.220Z,92769.06
2023-04-22T08:29:10.693Z,92768.28
2023-04-22T08:30:42.589Z,92760.13
2023-04-22T08:32:14.336Z,92764.66
2023-04-22T08:33:45.966Z,92767.94
2023-04-22T08:35:19.476Z,92760.72
2023-04-22T08:36:51.119Z,92762.47
2023-04-22T08:38:22.691Z,92756.94
2023-04-22T08:39:54.224Z,92756.50
2023-04-22T08:41:25.801Z,92762.66
2023-04-22T08:42:58.250Z,92760.44
2023-04-22T08:44:29.874Z,92761.94
2023-04-22T08:46:02.370Z,92752.22
2023-04-22T08:47:34.263Z,92752.63
2023-04-22T08:49:05.897Z,92747.56
2023-04-22T08:50:38.492Z,92749.66
2023-04-22T08:52:11.811Z,92752.63
2023-04-22T08:53:44.098Z,92754.03
2023-04-22T08:55:16.165Z,92753.59
2023-04-22T08:56:47.723Z,92749.59
2023-04-22T08:58:19.536Z,92745.72
2023-04-22T08:59:51.080Z,92743.94
2023-04-22T09:01:25.816Z,92741.13
2023-04-22T09:02:58.361Z,92737.44
2023-04-22T09:04:30.101Z,92737.44
2023-04-22T09:06:02.497Z,92740.16
2023-04-22T09:07:35.599Z,92736.09
2023-04-22T09:09:09.098Z,92725.94
2023-04-22T09:10:43.630Z,92728.63
2023-04-22T09:12:15.296Z,92732.13
2023-04-22T09:13:53.431Z,92728.75
2023-04-22T09:15:30.633Z,92727.69
2023-04-22T09:17:02.552Z,92730.41
2023-04-22T09:18:45.988Z,92731.94
2023-04-22T09:20:19.930Z,92726.31
2023-04-22T09:21:54.150Z,92725.88
2023-04-22T09:23:26.108Z,92725.56
2023-04-22T09:24:57.877Z,92722.72
2023-04-22T09:26:29.398Z,92723.47
2023-04-22T09:28:01.070Z,92714.28
2023-04-22T09:29:32.677Z,92712.19
2023-04-22T09:31:10.571Z,92709.31
2023-04-22T09:32:42.178Z,92711.03
2023-04-22T09:34:18.952Z,92711.41
2023-04-22T09:36:02.026Z,92710.47
2023-04-22T09:37:46.508Z,92706.03
2023-04-22T09:39:41.520Z,92708.13
2023-04-22T09:41:13.885Z,92709.84
2023-04-22T09:42:49.892Z,92708.94
2023-04-22T09:44:24.120Z,92712.63
2023-04-22T09:45:55.956Z,92705.38
2023-04-22T09:47:27.752Z,92696.00
2023-04-22T09:48:59.626Z,92705.34
2023-04-22T09:50:32.000Z,92702.50
2023-04-22T09:52:03.617Z,92705.81
2023-04-22T09:53:35.151Z,92703.47
2023-04-22T09:55:10.388Z,92698.06
2023-04-22T09:56:51.526Z,92699.41
2023-04-22T09:58:25.985Z,92696.50
2023-04-22T09:59:59.214Z,92694.72
2023-04-22T10:01:37.445Z,92693.03
2023-04-22T10:03:10.912Z,92689.34
2023-04-22T10:04:43.057Z,92691.84
2023-04-22T10:06:14.811Z,92678.69
2023-04-22T10:07:48.760Z,92676.38
2023-04-22T10:09:24.274Z,92670.97
2023-04-22T10:10:56.281Z,92665.91
2023-04-22T10:12:35.156Z,92673.00
2023-04-22T10:14:10.797Z,92673.75
2023-04-22T10:16:08.962Z,92658.09
2023-04-22T10:17:40.698Z,92664.34
2023-04-22T10:19:14.189Z,92660.34
2023-04-22T10:20:46.290Z,92671.66
2023-04-22T10:22:18.454Z,92664.69
2023-04-22T10:23:50.534Z,92661.25
2023-04-22T10:25:23.133Z,92662.91
2023-04-22T10:26:57.207Z,92659.84
2023-04-22T10:28:29.282Z,92656.31
2023-04-22T10:30:00.968Z,92650.84
2023-04-22T10:31:32.749Z,92654.34
2023-04-22T10:33:28.641Z,92648.06
2023-04-22T10:35:07.441Z,92640.09
2023-04-22T10:36:56.889Z,92644.00
2023-04-22T10:38:30.515Z,92652.28
2023-04-22T10:40:09.067Z,92644.09
2023-04-22T10:41:40.703Z,92639.34
2023-04-22T10:43:13.431Z,92637.34
2023-04-22T10:44:50.748Z,92623.97
2023-04-22T10:46:35.068Z,92634.88
2023-04-22T10:48:13.034Z,92628.63
2023-04-22T10:49:44.894Z,92621.63
2023-04-22T10:51:34.788Z,92621.66
2023-04-22T10:53:25.375Z,92628.75
2023-04-22T10:55:00.043Z,92624.94
2023-04-22T10:56:31.770Z,92622.31
2023-04-22T10:58:19.170Z,92614.59
2023-04-22T10:59:54.600Z,92614.53
2023-04-22T11:02:04.597Z,92621.59
2023-04-22T11:03:36.387Z,92621.69
2023-04-22T11:05:21.599Z,92617.81
2023-04-22T11:07:12.947Z,92622.19
2023-04-22T11:08:45.764Z,92625.72
2023-04-22T11:10:42.349Z,92624.97
2023-04-22T11:12:34.208Z,92613.97
2023-04-22T11:14:06.047Z,92614.41
2023-04-22T11:15:38.271Z,92608.53
2023-04-22T11:17:09.793Z,92612.00
2023-04-22T11:18:41.748Z,92617.88
2023-04-22T11:20:22.513Z,92623.75
2023-04-22T11:21:54.400Z,92617.44
2023-04-22T11:23:27.571Z,92615.91
2023-04-22T11:24:59.968Z,92624.19
2023-04-22T11:26:35.489Z,92624.56
2023-04-22T11:28:07.360Z,92632.78
2023-04-22T11:29:39.061Z,92628.81
2023-04-22T11:31:11.038Z,92633.13
2023-04-22T11:32:46.038Z,92624.91
2023-04-22T11:34:18.173Z,92632.75
2023-04-22T11:35:49.922Z,92633.16
2023-04-22T11:37:21.936Z,92628.88
2023-04-22T11:38:59.730Z,92621.44
2023-04-22T11:40:33.326Z,92623.78
2023-04-22T11:42:06.913Z,92621.84
2023-04-22T11:43:46.185Z,92628.09
2023-04-22T11:45:17.960Z,92624.94
2023-04-22T11:46:49.504Z,92626.13
2023-04-22T11:48:21.118Z,92623.78
2023-04-22T11:49:57.697Z,92619.47
2023-04-22T11:51:32.058Z,92616.69
2023-04-22T11:53:16.522Z,92609.97
2023-04-22T11:54:48.029Z,92618.56
2023-04-22T11:56:20.848Z,92616.56
2023-04-22T11:57:55.708Z,92617.31
2023-04-22T11:59:27.303Z,92618.81
2023-04-22T12:00:58.992Z,92621.91
2023-04-22T12:02:31.510Z,92619.06
2023-04-22T12:04:04.576Z,92609.22
2023-04-22T12:05:55.964Z,92621.28
2023-04-22T12:07:27.539Z,92620.41
2023-04-22T12:09:01.272Z,92618.00
2023-04-22T12:10:32.859Z,92616.38
2023-04-22T12:12:05.301Z,92626.50
2023-04-22T12:13:43.648Z,92627.59
2023-04-22T12:15:17.510Z,92619.78
2023-04-22T12:16:50.743Z,92620.47
2023-04-22T12:18:35.218Z,92618.47
2023-04-22T12:20:07.891Z,92614.94
2023-04-22T12:21:39.422Z,92614.22
2023-04-22T12:23:15.046Z,92618.56
2023-04-22T12:24:46.673Z,92612.31
2023-04-22T12:26:18.900Z,92608.75
2023-04-22T12:27:50.592Z,92604.44
2023-04-22T12:29:30.219Z,92602.91
2023-04-22T12:31:01.889Z,92606.44
2023-04-22T12:32:34.340Z,92608.00
2023-04-22T12:34:06.326Z,92612.28
2023-04-22T12:35:37.965Z,92616.84
2023-04-22T12:37:09.680Z,92615.28
2023-04-22T12:38:42.063Z,92611.41
2023-04-22T12:40:13.601Z,92611.44
2023-04-22T12:41:45.424Z,92611.09
2023-04-22T12:43:17.313Z,92615.75
2023-04-22T12:44:49.469Z,92610.59
2023-04-22T12:46:22.722Z,92603.44
2023-04-22T12:47:55.557Z,92599.88
2023-04-22T12:49:27.311Z,92610.22
2023-04-22T12:50:59.110Z,92599.13
2023-04-22T12:52:31.581Z,92603.56
2023-04-22T12:54:04.970Z,92607.22
2023-04-22T12:55:36.722Z,92605.47
2023-04-22T12:57:08.800Z,92603.28
2023-04-22T12:58:40.866Z,92599.16
2023-04-22T13:00:14.587Z,92601.75
2023-04-22T13:01:46.593Z,92603.63
2023-04-22T13:03:18.707Z,92600.00
2023-04-22T13:04:50.738Z,92602.50
2023-04-22T13:06:22.313Z,92608.16
2023-04-22T13:08:05.753Z,92596.31
2023-04-22T13:09:38.651Z,92601.69
2023-04-22T13:11:10.395Z,92602.53
2023-04-22T13:12:42.178Z,92612.88
2023-04-22T13:14:13.760Z,92611.91
2023-04-22T13:15:45.959Z,92613.16
2023-04-22T13:17:17.544Z,92616.34
2023-04-22T13:18:49.122Z,92621.38
2023-04-22T13:20:20.676Z,92610.13
2023-04-22T13:21:52.150Z,92621.31
2023-04-22T13:23:25.996Z,92626.34
2023-04-22T13:24:58.056Z,92623.97
2023-04-22T13:26:29.641Z,92627.69
2023-04-22T13:28:01.222Z,92626.25
2023-04-22T13:29:33.194Z,92621.72
2023-04-22T13:31:05.020Z,92615.28
2023-04-22T13:32:36.720Z,92627.31
2023-04-22T13:34:08.317Z,92625.38
2023-04-22T13:35:43.049Z,92626.72
2023-04-22T13:37:16.439Z,92631.81
2023-04-22T13:38:47.935Z,92638.91
2023-04-22T13:40:19.505Z,92637.88
2023-04-22T13:41:51.002Z,92636.06
2023-04-22T13:43:22.878Z,92635.31
2023-04-22T13:44:54.413Z,92643.56
2023-04-22T13:46:27.250Z,92638.53
2023-04-22T13:47:58.994Z,92640.59
2023-04-22T13:49:30.586Z,92644.25
2023-04-22T13:51:02.227Z,92646.69
2023-04-22T13:52:34.118Z,92647.38
2023-04-22T13:54:05.766Z,92649.63
2023-04-22T13:55:37.739Z,92653.91
2023-04-22T13:57:12.392Z,92654.41
2023-04-22T13:58:47.901Z,92655.28
2023-04-22T14:00:23.602Z,92656.41
2023-04-22T14:01:55.129Z,92656.16
2023-04-22T14:03:27.005Z,92658.75
2023-04-22T14:04:59.144Z,92659.88
2023-04-22T14:06:30.906Z,92651.38
2023-04-22T14:08:02.544Z,92657.59
2023-04-22T14:09:34.771Z,92658.88
2023-04-22T14:11:09.001Z,92659.22
2023-04-22T14:12:40.629Z,92664.75
2023-04-22T14:14:12.307Z,92660.81
2023-04-22T14:15:44.763Z,92656.84
2023-04-22T14:17:16.387Z,92659.03
2023-04-22T14:18:48.056Z,92662.97
2023-04-22T14:20:19.958Z,92657.59
2023-04-22T14:21:51.821Z,92662.97
2023-04-22T14:23:25.102Z,92660.38
2023-04-22T14:24:56.824Z,92663.16
2023-04-22T14:26:30.748Z,92664.66
2023-04-22T14:28:03.304Z,92666.59
2023-04-22T14:29:35.254Z,92662.44
2023-04-22T14:31:07.405Z,92667.59
2023-04-22T14:32:39.240Z,92664.88
2023-04-22T14:34:10.935Z,92668.72
2023-04-22T14:35:42.558Z,92676.91
2023-04-22T14:37:14.173Z,92674.91
2023-04-22T14:38:45.733Z,92676.53
2023-04-22T14:40:17.603Z,92674.97
2023-04-22T14:41:49.212Z,92679.97
2023-04-22T14:43:20.862Z,92683.34
2023-04-22T14:44:52.549Z,92679.41
2023-04-22T14:46:24.245Z,92687.22
2023-04-22T14:47:56.519Z,92685.66
2023-04-22T14:49:28.268Z,92678.69
2023-04-22T14:51:00.315Z,92688.09
2023-04-22T14:52:31.900Z,92682.34
2023-04-22T14:54:03.788Z,92674.97
2023-04-22T14:55:36.071Z,92678.47
2023-04-22T14:57:07.711Z,92686.50
2023-04-22T14:58:39.266Z,92687.56
2023-04-22T15:00:11.355Z,92689.38
2023-04-22T15:01:43.253Z,92685.78
2023-04-22T15:03:15.346Z,92679.50
2023-04-22T15:04:47.184Z,92674.44
2023-04-22T15:06:18.669Z,92685.44
2023-04-22T15:07:50.859Z,92686.31
2023-04-22T15:09:23.009Z,92684.03
2023-04-22T15:10:54.952Z,92689.66
2023-04-22T15:12:26.609Z,92686.28
2023-04-22T15:13:58.323Z,92681.63
2023-04-22T15:15:29.997Z,92689.44
2023-04-22T15:17:02.150Z,92682.78
2023-04-22T15:18:34.095Z,92682.66
2023-04-22T15:20:08.706Z,92682.50
2023-04-22T15:21:47.864Z,92691.72
2023-04-22T15:23:43.389Z,92682.72
2023-04-22T15:25:17.444Z,92695.75
2023-04-22T15:27:04.636Z,92681.41
2023-04-22T15:28:36.638Z,92692.03
2023-04-22T15:30:09.405Z,92697.66
2023-04-22T15:31:41.198Z,92689.31
2023-04-22T15:33:13.148Z,92697.31
2023-04-22T15:34:45.105Z,92688.72
2023-04-22T15:36:20.123Z,92695.56
2023-04-22T15:37:53.013Z,92694.63
2023-04-22T15:39:25.355Z,92693.81
2023-04-22T15:40:56.915Z,92692.31
2023-04-22T15:42:28.612Z,92694.69
2023-04-22T15:44:00.396Z,92690.56
2023-04-22T15:45:32.288Z,92689.78
2023-04-22T15:47:04.055Z,92698.28
2023-04-22T15:48:35.942Z,92698.97
2023-04-22T15:50:09.461Z,92689.69
2023-04-22T15:51:41.592Z,92693.44
2023-04-22T15:53:13.317Z,92697.22
2023-04-22T15:54:45.069Z,92696.44
2023-04-22T15:56:16.916Z,92704.59
2023-04-22T15:57:51.218Z,92704.25
2023-04-22T15:59:22.952Z,92706.97
2023-04-22T16:01:01.756Z,92704.16
2023-04-22T16:02:39.989Z,92697.47
2023-04-22T16:04:12.415Z,92700.91
2023-04-22T16:05:44.245Z,92703.34
2023-04-22T16:07:16.246Z,92707.03
2023-04-22T16:08:47.979Z,92700.56
2023-04-22T16:10:19.721Z,92699.84
2023-04-22T16:11:51.496Z,92708.59
2023-04-22T16:13:23.486Z,92708.88
2023-04-22T16:14:55.703Z,92705.50
2023-04-22T16:16:28.187Z,92707.09
2023-04-22T16:18:00.311Z,92703.53
2023-04-22T16:19:32.361Z,92696.72
2023-04-22T16:21:04.392Z,92703.44
2023-04-22T16:22:37.472Z,92707.66
2023-04-22T16:24:09.579Z,92708.59
2023-04-22T16:25:41.543Z,92713.63
2023-04-22T16:27:17.149Z,92708.78
2023-04-22T16:28:49.687Z,92703.97
2023-04-22T16:30:24.470Z,92702.91
2023-04-22T16:31:56.757Z,92703.00
2023-04-22T16:33:28.791Z,92710.47
2023-04-22T16:35:03.702Z,92705.19
2023-04-22T16:36:35.315Z,92714.78
2023-04-22T16:38:07.371Z,92716.75
2023-04-22T16:39:39.777Z,92723.16
2023-04-22T16:41:11.997Z,92716.47
2023-04-22T16:42:43.626Z,92720.31
2023-04-22T16:44:18.792Z,92718.22
2023-04-22T16:45:50.492Z,92722.41
2023-04-22T16:47:22.201Z,92722.75
2023-04-22T16:48:53.998Z,92720.81
2023-04-22T16:50:25.864Z,92730.44
2023-04-22T16:51:57.423Z,92732.28
2023-04-22T16:53:29.048Z,92732.06
2023-04-22T16:55:00.863Z,92735.56
2023-04-22T16:56:32.448Z,92738.09
2023-04-22T16:58:04.193Z,92729.53
2023-04-22T16:59:35.873Z,92744.25
2023-04-22T17:01:07.670Z,92738.97
2023-04-22T17:02:39.873Z,92741.00
2023-04-22T17:04:12.288Z,92747.91
2023-04-22T17:05:44.013Z,92745.91
2023-04-22T17:07:15.743Z,92752.44
2023-04-22T17:08:47.475Z,92750.19
2023-04-22T17:10:19.062Z,92755.13
2023-04-22T17:11:51.970Z,92760.97
2023-04-22T17:13:24.084Z,92756.09
2023-04-22T17:14:56.287Z,92758.13
2023-04-22T17:16:28.423Z,92753.78
2023-04-22T17:18:01.018Z,92758.91
2023-04-22T17:19:32.655Z,92761.78
2023-04-22T17:21:04.523Z,92759.81
2023-04-22T17:22:36.108Z,92759.75
2023-04-22T17:24:08.425Z,92766.28
2023-04-22T17:25:40.490Z,92774.38
2023-04-22T17:27:16.233Z,92772.66
2023-04-22T17:28:48.270Z,92765.09
2023-04-22T17:30:22.345Z,92770.22
2023-04-22T17:31:54.548Z,92777.03
2023-04-22T17:33:28.433Z,92782.44
2023-04-22T17:35:00.232Z,92781.53
2023-04-22T17:36:32.661Z,92784.84
2023-04-22T17:38:04.598Z,92787.75
2023-04-22T17:39:36.321Z,92786.34
2023-04-22T17:41:08.108Z,92787.84
2023-04-22T17:42:46.012Z,92797.69
2023-04-22T17:44:18.078Z,92792.97
2023-04-22T17:45:50.004Z,92799.78
2023-04-22T17:47:21.745Z,92800.31
2023-04-22T17:48:53.775Z,92800.94
2023-04-22T17:50:25.547Z,92808.56
2023-04-22T17:51:57.868Z,92806.22
2023-04-22T17:53:30.037Z,92812.28
2023-04-22T17:55:01.923Z,92811.66
2023-04-22T17:56:33.713Z,92819.13
2023-04-22T17:58:05.596Z,92817.41
2023-04-22T17:59:37.313Z,92825.81
2023-04-22T18:01:09.065Z,92820.09
2023-04-22T18:02:41.408Z,92820.44
2023-04-22T18:04:14.057Z,92822.97
2023-04-22T18:05:45.959Z,92822.00
2023-04-22T18:07:18.593Z,92828.84
2023-04-22T18:08:50.914Z,92833.09
2023-04-22T18:10:22.765Z,92833.91
2023-04-22T18:11:58.826Z,92843.28
2023-04-22T18:13:30.913Z,92835.84
2023-04-22T18:15:02.778Z,92830.75
2023-04-22T18:16:34.921Z,92837.59
2023-04-22T18:18:06.669Z,92834.75
2023-04-22T18:19:39.171Z,92838.06
2023-04-22T18:21:11.345Z,92844.09
2023-04-22T18:22:43.659Z,92846.78
2023-04-22T18:24:16.010Z,92847.91
2023-04-22T18:25:48.791Z,92851.72
2023-04-22T18:27:21.686Z,92860.75
2023-04-22T18:28:53.395Z,92860.44
2023-04-22T18:30:25.378Z,92859.47
2023-04-22T18:31:59.901Z,92863.75
2023-04-22T18:33:31.728Z,92874.25
2023-04-22T18:35:03.649Z,92869.47
2023-04-22T18:36:35.897Z,92870.38
2023-04-22T18:38:07.582Z,92875.31
2023-04-22T18:39:39.713Z,92868.34
2023-04-22T18:41:13.892Z,92868.47
2023-04-22T18:42:46.278Z,92877.03
2023-04-22T18:44:18.689Z,92873.88
2023-04-22T18:45:51.200Z,92872.28
2023-04-22T18:47:23.132Z,92868.97
2023-04-22T18:48:55.178Z,92867.81
2023-04-22T18:50:26.890Z,92874.19
2023-04-22T18:51:59.126Z,92881.91
2023-04-22T18:53:31.261Z,92885.75
2023-04-22T18:55:03.518Z,92877.00
2023-04-22T18:56:35.839Z,92896.78
2023-04-22T18:58:07.514Z,92886.97
2023-04-22T18:59:39.991Z,92882.69
2023-04-22T19:01:12.149Z,92888.69
2023-04-22T19:02:45.435Z,92887.91
2023-04-22T19:04:17.316Z,92889.00
2023-04-22T19:05:49.209Z,92889.31
2023-04-22T19:07:21.411Z,92891.22
2023-04-22T19:08:53.359Z,92883.31
2023-04-22T19:10:25.089Z,92890.44
2023-04-22T19:11:56.820Z,92890.44
2023-04-22T19:13:30.139Z,92891.69
2023-04-22T19:15:02.285Z,92891.22